Flight Track Log - Related Links

Times and Time Zones

All times are in EDT time to prevent confusion due to time zone crossing. See the SWA3247 flight status page for this flight to view local times or setup timezone preferences in your user account.

Time Position Orientation Groundspeed Altitude Reporting Facility
EDT Latitude Longitude Course Direction KTS MPH feet Rate Location/Type
Sun 09:09:40 PM 36.0772 -115.1039 92° East 205 236 3,100  Level Los Center
Sun 09:10:54 PM 36.0742 -115.0011 92° East 255 293 4,700 1,778 Climbing Los Center
Sun 09:11:55 PM 36.0833 -114.9050 83° East 289 333 7,100 2,344 Climbing Los Center
Sun 09:13:02 PM 36.1025 -114.7947 78° East 298 343 9,700 1,779 Climbing Los Center
Sun 09:14:20 PM 36.1250 -114.6528 79° East 323 372 11,400 1,714 Climbing Los Center
Sun 09:15:22 PM 36.1458 -114.5261 78° East 365 420 13,700 2,177 Climbing Los Center
Sun 09:16:24 PM 36.1667 -114.3997 78° East 374 430 15,900 2,274 Climbing Los Center
Sun 09:17:26 PM 36.1878 -114.2683 79° East 384 442 18,400 2,323 Climbing Los Center
Sun 09:18:28 PM 36.2083 -114.1353 79° East 392 451 20,700 2,081 Climbing Los Center
Sun 09:19:30 PM 36.2514 -114.0053 68° East 404 465 22,700 1,839 Climbing Los Center
Sun 09:20:32 PM 36.3047 -113.8442 68° East 417 480 24,500 1,548 Climbing Los Center
Sun 09:21:34 PM 36.3506 -113.7039 68° East 433 498 25,900 1,355 Climbing Los Center
Sun 09:22:36 PM 36.4003 -113.5608 67° East 446 513 27,300 1,296 Climbing Los Center
Sun 09:23:39 PM 36.4492 -113.4136 68° East 457 526 28,600 1,512 Climbing Los Center
Sun 09:24:39 PM 36.4994 -113.2564 68° East 465 535 30,400 1,672 Climbing Los Center
Sun 09:25:41 PM 36.5469 -113.1106 68° East 461 531 32,000 1,452 Climbing Los Center
Sun 09:26:43 PM 36.5942 -112.9647 68° East 458 527 33,400 1,403 Climbing Los Center
Sun 09:27:45 PM 36.6514 -112.7883 68° East 459 528 34,900 774 Climbing Los Center
Sun 09:28:47 PM 36.6983 -112.6433 68° East 457 526 35,000 48 Climbing Los Center
Sun 09:29:49 PM 36.7489 -112.4986 66° East 457 526 35,000  Level Los Center
Sun 09:30:50 PM 36.7983 -112.3547 67° East 455 524 35,000  Level Los Center
Sun 09:32:05 PM 36.8586 -112.1794 67° East 459 528 35,000  Level Los Center
Sun 09:33:06 PM 36.9083 -112.0325 67° East 460 529 35,000  Level Los Center
Sun 09:34:13 PM 36.9683 -111.8589 67° East 459 528 35,000  Level Los Center
Sun 09:35:22 PM 37.0269 -111.6850 67° East 457 526 35,000  Level Los Center
Sun 09:36:24 PM 37.0750 -111.5392 68° East 457 526 35,000  Level Denver Center
Sun 09:37:26 PM 37.1214 -111.3922 68° East 457 526 35,000 581 Level Denver Center
Sun 09:38:28 PM 37.1706 -111.2450 67° East 459 528 36,200 968 Climbing Denver Center
Sun 09:39:30 PM 37.2178 -111.0997 68° East 453 521 37,000 387 Climbing Denver Center
Sun 09:40:32 PM 37.2731 -110.9289 68° East 443 510 37,000  Level Denver Center
Sun 09:41:34 PM 37.3211 -110.7842 67° East 449 517 37,000  Level Denver Center
Sun 09:42:35 PM 37.3681 -110.6369 68° East 454 522 37,000  Level Denver Center
Sun 09:43:37 PM 37.4150 -110.4897 68° East 455 524 37,000  Level Denver Center
Sun 09:44:39 PM 37.4617 -110.3408 68° East 457 526 37,000  Level Denver Center
Sun 09:45:41 PM 37.5106 -110.1883 68° East 458 527 37,000  Level Denver Center
Sun 09:46:42 PM 37.5617 -110.0239 69° East 454 522 37,000  Level Denver Center
Sun 09:47:44 PM 37.6058 -109.8828 68° East 451 519 37,000  Level Denver Center
Sun 09:48:46 PM 37.6589 -109.7175 68° East 454 522 37,000  Level Denver Center
Sun 09:49:48 PM 37.7025 -109.5742 69° East 455 524 37,000  Level Denver Center
Sun 09:50:49 PM 37.7467 -109.4306 69° East 457 526 37,000  Level Denver Center
Sun 09:51:51 PM 37.7992 -109.2628 68° East 459 528 37,000  Level Denver Center
Sun 09:52:53 PM 37.8425 -109.1189 69° East 456 525 37,000  Level Denver Center
Sun 09:53:54 PM 37.8944 -108.9503 69° East 459 528 37,000  Level Denver Center
Sun 09:54:56 PM 37.9372 -108.8056 69° East 458 527 37,000  Level Denver Center
Sun 09:55:58 PM 37.9883 -108.6367 69° East 459 528 37,000  Level Denver Center
Sun 09:57:00 PM 38.0317 -108.4928 69° East 455 524 37,000  Level Denver Center
Sun 09:58:01 PM 38.0803 -108.3244 70° East 469 540 37,000  Level Denver Center
Sun 09:59:03 PM 38.1228 -108.1797 69° East 463 533 37,000  Level Denver Center
Sun 10:00:05 PM 38.1633 -108.0050 74° East 463 533 37,000  Level Denver Center
Sun 10:01:06 PM 38.1872 -107.8750 77° East 468 539 37,000  Level Denver Center
Sun 10:02:08 PM 38.2186 -107.6942 77° East 470 541 37,000  Level Denver Center
Sun 10:03:10 PM 38.2592 -107.5161 74° East 469 540 37,000  Level Denver Center
Sun 10:04:12 PM 38.3011 -107.3658 70° East 471 542 37,000  Level Denver Center
Sun 10:05:13 PM 38.3436 -107.1886 73° East 469 540 37,000  Level Denver Center
Sun 10:06:15 PM 38.3764 -107.0303 75° East 473 544 37,000  Level Denver Center
Sun 10:07:17 PM 38.4117 -106.8694 74° East 474 545 37,000  Level Denver Center
Sun 10:08:19 PM 38.4458 -106.7064 75° East 477 549 37,000  Level Denver Center
Sun 10:09:20 PM 38.4800 -106.5447 75° East 475 547 37,000  Level Denver Center
Sun 10:10:22 PM 38.5142 -106.3786 75° East 483 556 37,000  Level Denver Center
Sun 10:11:24 PM 38.5547 -106.1808 75° East 482 555 37,000  Level Denver Center
Sun 10:12:25 PM 38.5847 -106.0414 75° East 487 560 37,000  Level Denver Center
Sun 10:13:27 PM 38.6264 -105.8386 75° East 482 555 37,000  Level Denver Center
Sun 10:14:29 PM 38.6594 -105.6744 75° East 480 552 37,000  Level Denver Center
Sun 10:15:30 PM 38.6931 -105.5106 75° East 479 551 37,000  Level Denver Center
Sun 10:16:32 PM 38.7253 -105.3464 76° East 479 551 37,000  Level Denver Center
Sun 10:17:34 PM 38.7578 -105.1817 76° East 479 551 37,000  Level Denver Center
Sun 10:18:35 PM 38.7889 -105.0172 76° East 478 550 37,000  Level Denver Center
Sun 10:19:37 PM 38.8281 -104.8189 76° East 482 555 37,000  Level Denver Center
Sun 10:20:39 PM 38.8600 -104.6525 76° East 483 556 37,000  Level Denver Center
Sun 10:21:40 PM 38.8925 -104.4883 76° East 480 552 37,000  Level Denver Center
Sun 10:22:42 PM 38.9233 -104.3211 77° East 484 557 37,000  Level Denver Center
Sun 10:23:44 PM 38.9558 -104.1525 76° East 490 564 37,000  Level Denver Center
Sun 10:24:45 PM 38.9867 -103.9858 77° East 485 558 37,000  Level Denver Center
Sun 10:25:47 PM 39.0239 -103.7844 77° East 485 558 37,000  Level Denver Center
Sun 10:26:49 PM 39.0542 -103.6178 77° East 483 556 37,000  Level Denver Center
Sun 10:27:50 PM 39.0847 -103.4481 77° East 488 562 37,000  Level Denver Center
Sun 10:28:52 PM 39.1153 -103.2797 77° East 485 558 37,000  Level Denver Center
Sun 10:29:54 PM 39.1461 -103.1139 76° East 478 550 37,000  Level Denver Center
Sun 10:30:56 PM 39.1744 -102.9447 78° East 484 557 37,000  Level Denver Center
Sun 10:31:57 PM 39.2100 -102.7442 77° East 480 552 37,000  Level Denver Center
Sun 10:33:11 PM 39.2383 -102.5756 78° East 487 560 37,000  Level Denver Center
Sun 10:34:13 PM 39.2711 -102.3864 77° East 486 559 37,000  Level Denver Center
Sun 10:35:15 PM 39.3028 -102.1983 78° East 481 554 37,000  Level Denver Center
Sun 10:36:17 PM 39.3325 -102.0228 78° East 480 552 37,000  Level Denver Center
Sun 10:37:18 PM 39.3597 -101.8636 77° East 477 549 37,000  Level Denver Center
Sun 10:38:20 PM 39.3914 -101.6783 77° East 474 545 37,000  Level Denver Center
Sun 10:39:22 PM 39.4414 -101.5347 66° East 459 528 37,000  Level Denver Center
Sun 10:40:24 PM 39.4983 -101.3664 66° East 457 526 37,000  Level Denver Center
Sun 10:41:25 PM 39.5467 -101.2214 67° East 459 528 37,000  Level Denver Center
Sun 10:42:27 PM 39.5939 -101.0747 67° East 462 532 37,000  Level Denver Center
Sun 10:43:29 PM 39.6506 -100.9069 66° East 457 526 37,000  Level Denver Center
Sun 10:44:31 PM 39.6969 -100.7622 67° East 455 524 37,000  Level Denver Center
Sun 10:45:32 PM 39.7531 -100.5944 66° East 454 522 37,000  Level Denver Center
Sun 10:46:34 PM 39.7994 -100.4481 68° East 457 526 37,000  Level Denver Center
Sun 10:47:36 PM 39.8544 -100.2800 67° East 455 524 37,000  Level Denver Center
Sun 10:48:38 PM 39.9056 -100.1192 67° East 456 525 37,000  Level Denver Center
Sun 10:49:39 PM 39.9550 -99.9669 67° East 457 526 37,000  Level Denver Center
Sun 10:50:41 PM 40.0033 -99.8133 68° East 459 528 37,000  Level Denver Center
Sun 10:51:43 PM 40.0519 -99.6614 67° East 457 526 37,000  Level Denver Center
Sun 10:52:45 PM 40.0997 -99.5086 68° East 455 524 37,000  Level Denver Center
Sun 10:53:46 PM 40.1472 -99.3550 68° East 458 527 37,000  Level Denver Center
Sun 10:54:48 PM 40.1947 -99.2028 68° East 454 522 37,000  Level Denver Center
Sun 10:56:02 PM 40.2511 -99.0231 68° East 448 516 37,000  Level Denver Center
Sun 10:57:04 PM 40.3053 -98.8417 69° East 447 514 37,000  Level Denver Center
Sun 10:58:05 PM 40.3392 -98.6836 74° East 458 527 37,000  Level Denver Center
Sun 10:59:01 PM 40.3694 -98.5239 76° East 457 526 37,000  Level Minneapolis Center
Sun 11:00:02 PM 40.3986 -98.3617 77° East 459 528 37,000  Level Minneapolis Center
Sun 11:01:04 PM 40.4269 -98.1994 77° East 460 529 37,000  Level Minneapolis Center
Sun 11:02:05 PM 40.4564 -98.0375 77° East 459 528 37,000  Level Minneapolis Center
Sun 11:03:06 PM 40.4839 -97.8758 77° East 456 525 37,000  Level Minneapolis Center
Sun 11:04:07 PM 40.5128 -97.7144 77° East 456 525 37,000  Level Minneapolis Center
Sun 11:05:08 PM 40.5403 -97.5533 77° East 454 522 37,000  Level Minneapolis Center
Sun 11:06:09 PM 40.5681 -97.3936 77° East 451 519 37,000  Level Minneapolis Center
Sun 11:07:10 PM 40.5994 -97.2106 77° East 452 520 37,000  Level Minneapolis Center
Sun 11:08:11 PM 40.6261 -97.0519 77° East 448 516 37,000  Level Minneapolis Center
Sun 11:09:13 PM 40.6533 -96.8942 77° East 444 511 37,000  Level Minneapolis Center
Sun 11:10:14 PM 40.6783 -96.7356 78° East 445 512 37,000  Level Minneapolis Center
Sun 11:11:15 PM 40.7050 -96.5778 77° East 443 510 37,000  Level Minneapolis Center
Sun 11:12:16 PM 40.7308 -96.4189 78° East 445 512 37,000 98 Level Minneapolis Center
Sun 11:13:17 PM 40.7569 -96.2600 78° East 446 513 37,200 541 Climbing Minneapolis Center
Sun 11:14:18 PM 40.7825 -96.0969 78° East 453 521 38,100 885 Climbing Minneapolis Center
Sun 11:15:19 PM 40.8131 -95.9031 78° East 453 521 39,000 443 Climbing Minneapolis Center
Sun 11:16:20 PM 40.8394 -95.7408 78° East 455 524 39,000  Level Minneapolis Center
Sun 11:17:21 PM 40.8647 -95.5758 78° East 460 529 39,000  Level Minneapolis Center
Sun 11:18:22 PM 40.8908 -95.4106 78° East 461 531 39,000  Level Minneapolis Center
Sun 11:19:23 PM 40.9158 -95.2483 78° East 457 526 39,000  Level Minneapolis Center
Sun 11:20:24 PM 40.9403 -95.0833 79° East 458 527 39,000  Level Minneapolis Center
Sun 11:21:25 PM 40.9647 -94.9183 79° East 458 527 39,000  Level Minneapolis Center
Sun 11:22:26 PM 40.9894 -94.7556 79° East 455 524 39,000  Level Minneapolis Center
Sun 11:23:27 PM 41.0125 -94.5897 80° East 458 527 39,000  Level Minneapolis Center
Sun 11:24:28 PM 41.0369 -94.4203 79° East 456 525 39,000  Level Minneapolis Center
Sun 11:25:29 PM 41.0600 -94.2567 79° East 454 522 39,000  Level Minneapolis Center
Sun 11:26:30 PM 41.0842 -94.0931 79° East 456 525 39,000  Level Minneapolis Center
Sun 11:27:31 PM 41.1100 -93.8972 80° East 453 521 39,000  Level Minneapolis Center
Sun 11:28:32 PM 41.1350 -93.7319 79° East 456 525 39,000  Level Minneapolis Center
Sun 11:29:33 PM 41.1564 -93.5683 80° East 456 525 39,000  Level Minneapolis Center
Sun 11:30:34 PM 41.1794 -93.4019 80° East 457 526 39,000  Level Minneapolis Center
Sun 11:31:35 PM 41.2028 -93.2353 79° East 460 529 39,000  Level Minneapolis Center
Sun 11:32:36 PM 41.2236 -93.0697 80° East 458 527 39,000  Level Minneapolis Center
Sun 11:33:37 PM 41.2458 -92.9042 80° East 458 527 39,000  Level Minneapolis Center
Sun 11:34:38 PM 41.2675 -92.7375 80° East 459 528 39,000  Level Minneapolis Center
Sun 11:35:39 PM 41.2883 -92.5717 80° East 459 528 39,000  Level Minneapolis Center
Sun 11:36:40 PM 41.3097 -92.4069 80° East 456 525 39,000  Level Minneapolis Center
Sun 11:37:41 PM 41.3306 -92.2414 80° East 455 524 39,000  Level Minneapolis Center
Sun 11:38:42 PM 41.3550 -92.0425 81° East 457 526 39,000  Level Minneapolis Center
Sun 11:39:43 PM 41.3739 -91.8783 81° East 455 524 39,000  Level Minneapolis Center
Sun 11:40:44 PM 41.3972 -91.6986 80° East 455 524 39,000  Level Minneapolis Center
Sun 11:42:02 PM 41.4197 -91.4981 81° East 454 522 39,000  Level Chicago Center
Sun 11:43:02 PM 41.4392 -91.3342 81° East 455 524 39,000  Level Chicago Center
Sun 11:44:03 PM 41.4600 -91.1533 81° East 459 528 39,000  Level Chicago Center
Sun 11:45:04 PM 41.4781 -90.9869 82° East 457 526 39,000  Level Chicago Center
Sun 11:46:05 PM 41.4967 -90.8217 81° East 452 520 39,000  Level Chicago Center
Sun 11:47:06 PM 41.5158 -90.6539 81° East 455 524 39,000  Level Chicago Center
Sun 11:48:07 PM 41.5339 -90.4881 82° East 454 522 39,000  Level Chicago Center
Sun 11:49:07 PM 41.5514 -90.3200 82° East 455 524 39,000  Level Chicago Center
Sun 11:50:08 PM 41.5686 -90.1536 82° East 451 519 39,000  Level Chicago Center
Sun 11:51:09 PM 41.5867 -89.9861 82° East 453 521 39,000  Level Chicago Center
Sun 11:52:10 PM 41.6053 -89.8172 82° East 456 525 39,000  Level Chicago Center
Sun 11:53:11 PM 41.6211 -89.6497 83° East 454 522 39,000  Level Chicago Center
Sun 11:54:11 PM 41.6375 -89.4911 82° East 456 525 39,000  Level Chicago Center
Sun 11:55:12 PM 41.6536 -89.3244 83° East 452 520 39,000  Level Chicago Center
Sun 11:56:13 PM 41.6731 -89.1233 83° East 457 526 39,000  Level Chicago Center
Sun 11:57:14 PM 41.6883 -88.9567 83° East 455 524 39,000  Level Chicago Center
Sun 11:58:15 PM 41.7042 -88.7872 83° East 461 531 39,000  Level Chicago Center
Sun 11:59:15 PM 41.7197 -88.6203 83° East 456 525 39,000  Level Chicago Center
Mon 12:00:16 AM 41.7353 -88.4522 83° East 457 526 39,000  Level Chicago Center
Mon 12:01:17 AM 41.7500 -88.2836 83° East 457 526 39,000  Level Chicago Center
Mon 12:02:18 AM 41.7650 -88.1131 83° East 460 529 39,000  Level Chicago Center
Mon 12:03:19 AM 41.7803 -87.9400 83° East 465 535 39,000  Level Chicago Center
Mon 12:04:19 AM 41.7942 -87.7675 84° East 466 536 39,000  Level Chicago Center
Mon 12:05:20 AM 41.8075 -87.5950 84° East 466 536 39,000  Level Chicago Center
Mon 12:06:21 AM 41.8217 -87.4217 84° East 469 540 39,000  Level Chicago Center
Mon 12:07:22 AM 41.8372 -87.2492 83° East 469 540 39,000  Level Chicago Center
Mon 12:08:22 AM 41.8506 -87.0761 84° East 470 541 39,000  Level Chicago Center
Mon 12:09:23 AM 41.8639 -86.9022 84° East 470 541 39,000  Level Chicago Center
Mon 12:10:24 AM 41.8764 -86.7275 84° East 472 543 39,000  Level Chicago Center
Mon 12:11:25 AM 41.8883 -86.5508 85° East 474 545 39,000  Level Chicago Center
Mon 12:12:25 AM 41.9008 -86.3783 84° East 466 536 39,000  Level Chicago Center
Mon 12:13:26 AM 41.9133 -86.2042 84° East 467 537 39,000  Level Chicago Center
Mon 12:14:27 AM 41.9256 -86.0292 85° East 469 540 39,000  Level Chicago Center
Mon 12:15:27 AM 41.9375 -85.8564 85° East 464 534 39,000  Level Chicago Center
Mon 12:16:28 AM 41.9492 -85.6808 85° East 467 537 39,000  Level Chicago Center
Mon 12:17:29 AM 41.9617 -85.5042 85° East 471 542 39,000  Level Chicago Center
Mon 12:18:30 AM 41.9728 -85.3261 85° East 473 544 39,000  Level Chicago Center
Mon 12:19:30 AM 41.9842 -85.1467 85° East 478 550 39,000  Level Chicago Center
Mon 12:20:31 AM 42.0008 -84.9547 83° East 488 562 39,000  Level Chicago Center
Mon 12:21:31 AM 42.0233 -84.7739 80° East 492 566 39,000  Level Chicago Center
Mon 12:22:32 AM 42.0439 -84.5947 81° East 488 562 39,000  Level Chicago Center
Mon 12:23:33 AM 42.0636 -84.4164 81° East 485 558 39,000  Level Chicago Center
Mon 12:24:33 AM 42.0844 -84.2364 81° East 488 562 39,000  Level Chicago Center
Mon 12:25:34 AM 42.1075 -84.0194 82° East 490 564 39,000  Level Chicago Center
Mon 12:26:34 AM 42.1269 -83.8381 82° East 491 565 39,000  Level Chicago Center
Mon 12:27:35 AM 42.1464 -83.6561 82° East 491 565 39,000  Level Chicago Center
Mon 12:28:36 AM 42.1653 -83.4733 82° East 493 567 39,000  Level Chicago Center
Mon 12:29:36 AM 42.1847 -83.2892 82° East 497 572 39,000  Level Chicago Center
Mon 12:30:52 AM 42.2042 -83.0611 83° East 507 583 39,000  Level Cleveland Center
Mon 12:31:52 AM 42.2225 -82.8767 82° East 500 575 39,000  Level Cleveland Center
Mon 12:32:52 AM 42.2408 -82.6894 82° East 500 575 39,000  Level Cleveland Center
Mon 12:33:52 AM 42.2586 -82.4992 83° East 500 575 39,000  Level Cleveland Center
Mon 12:34:52 AM 42.2764 -82.3119 83° East 500 575 39,000  Level Cleveland Center
Mon 12:35:52 AM 42.2958 -82.1075 83° East 500 575 39,000  Level Cleveland Center
Mon 12:36:52 AM 42.3150 -81.9114 82° East 507 583 39,000  Level Cleveland Center
Mon 12:37:52 AM 42.3292 -81.7431 83° East 514 592 39,000  Level Cleveland Center
Mon 12:38:52 AM 42.3478 -81.5553 82° East 506 582 39,000  Level Cleveland Center
Mon 12:39:52 AM 42.3617 -81.3644 84° East 506 582 39,000  Level Cleveland Center
Mon 12:40:52 AM 42.3794 -81.1733 83° East 506 582 39,000  Level Cleveland Center
Mon 12:41:52 AM 42.3950 -80.9797 84° East 511 588 39,000  Level Cleveland Center
Mon 12:42:52 AM 42.4122 -80.7689 84° East 511 588 39,000  Level Cleveland Center
Mon 12:43:52 AM 42.4247 -80.5747 85° East 521 600 39,000  Level Cleveland Center
Mon 12:44:52 AM 42.4414 -80.3861 83° East 516 594 39,000  Level Cleveland Center
Mon 12:45:52 AM 42.4553 -80.1892 84° East 521 600 39,000  Level Cleveland Center
Mon 12:46:52 AM 42.4711 -79.9978 84° East 520 598 39,000  Level Cleveland Center
Mon 12:47:52 AM 42.4847 -79.8033 85° East 515 593 39,000  Level Cleveland Center
Mon 12:48:52 AM 42.4958 -79.6117 85° East 515 593 39,000  Level Cleveland Center
Mon 12:49:52 AM 42.5128 -79.4200 83° East 520 598 39,000  Level Cleveland Center
Mon 12:50:52 AM 42.5231 -79.2253 86° East 520 598 39,000  Level Cleveland Center
Mon 12:51:52 AM 42.5372 -79.0306 84° East 520 598 39,000  Level Cleveland Center
Mon 12:52:52 AM 42.5492 -78.8358 85° East 520 598 39,000  Level Cleveland Center
Mon 12:53:52 AM 42.5606 -78.6411 85° East 520 598 39,000  Level Cleveland Center
Mon 12:54:52 AM 42.5717 -78.4461 86° East 520 598 39,000  Level Cleveland Center
Mon 12:55:52 AM 42.5825 -78.2539 86° East 520 598 39,000  Level Cleveland Center
Mon 12:56:52 AM 42.5931 -78.0561 86° East 520 598 39,000  Level Cleveland Center
Mon 12:57:52 AM 42.6033 -77.8667 86° East 514 592 39,000  Level Cleveland Center
Mon 12:58:52 AM 42.6153 -77.6714 85° East 514 592 39,000  Level Cleveland Center
Mon 12:59:52 AM 42.6228 -77.4792 87° East 514 592 39,000  Level Cleveland Center
Mon 01:02:07 AM 42.6419 -77.0614 86° East 506 582 39,000  Level Boston Center
Mon 01:03:07 AM 42.6517 -76.8700 86° East 506 582 39,000  Level Boston Center
Mon 01:04:07 AM 42.6589 -76.6786 87° East 506 582 39,000  Level Boston Center
Mon 01:05:07 AM 42.6681 -76.4869 86° East 506 582 39,000 -100 Level Boston Center
Mon 01:06:07 AM 42.6769 -76.2897 86° East 511 588 38,800 -1,773 Descending Boston Center
Mon 01:07:19 AM 42.6867 -76.0558 87° East 511 588 35,100 -3,136 Descending Boston Center
Mon 01:08:19 AM 42.6908 -75.8611 88° East 511 588 31,900 -3,150 Descending Boston Center
Mon 01:09:19 AM 42.7006 -75.6639 86° East 511 588 28,800 -3,000 Descending Boston Center
Mon 01:10:19 AM 42.7039 -75.4692 89° East 511 588 25,900 -2,400 Descending Boston Center
Mon 01:11:19 AM 42.7128 -75.2886 86° East 499 574 24,000 -2,550 Descending Boston Center
Mon 01:12:19 AM 42.7150 -75.1106 89° East 476 548 20,800 -3,000 Descending Boston Center
Mon 01:13:19 AM 42.7208 -74.9414 87° East 458 527 18,000 -2,850 Descending Boston Center
Mon 01:14:19 AM 42.7269 -74.7606 87° East 443 510 15,100 -2,550 Descending Boston Center
Mon 01:15:19 AM 42.7297 -74.6194 88° East 419 482 12,900 -1,937 Descending Boston Center
Mon 01:16:26 AM 42.7350 -74.4472 88° East 380 437 11,000 -950 Descending Boston Center
Mon 01:17:19 AM 42.7367 -74.3453 89° East 346 398 11,000 -1,062 Level Boston Center
Mon 01:18:19 AM 42.7386 -74.2211 89° East 301 346 9,000 -1,650 Descending Boston Center
Mon 01:19:19 AM 42.7547 -74.1253 77° East 291 335 7,700 -1,550 Descending Boston Center
Mon 01:20:19 AM 42.8225 -74.0508 39° Northeast 267 307 5,900 -1,900 Descending Boston Center
Mon 01:21:19 AM 42.8633 -73.9669 56° Northeast 267 307 3,900 -1,450 Descending Boston Center
Mon 01:22:19 AM 42.8647 -73.8622 89° East 256 295 3,000 -800 Descending Boston Center
Mon 01:23:19 AM 42.8422 -73.8078 119° Southeast 192 221 2,300 -350 Descending Boston Center
Mon 01:24:19 AM 42.8328 -73.7425 101° East 192 221 2,300  Level Boston Center

Login

Don't have an account? Register now (free) for customized features, flight alerts, and more!